createdAt,value
2018-01-06T00:00:19.392Z,1.8
2018-01-06T00:02:19.135Z,1.9
2018-01-06T00:04:18.893Z,1.7
2018-01-06T00:06:18.929Z,1.8
2018-01-06T00:08:18.687Z,2.5
2018-01-06T00:10:18.986Z,2.3
2018-01-06T00:12:18.731Z,2.8
2018-01-06T00:14:18.480Z,2.6
2018-01-06T00:16:19.000Z,2.7
2018-01-06T00:18:18.822Z,2.9
2018-01-06T00:20:18.598Z,3.4
2018-01-06T00:22:19.356Z,2.4
2018-01-06T00:24:19.127Z,2.5
2018-01-06T00:26:18.802Z,1.7
2018-01-06T00:28:18.576Z,1.9
2018-01-06T00:30:19.370Z,2.4
2018-01-06T00:32:19.120Z,2.4
2018-01-06T00:34:18.874Z,2.5
2018-01-06T00:36:18.973Z,2.1
2018-01-06T00:38:18.768Z,1.9
2018-01-06T00:40:18.985Z,2.7
2018-01-06T00:42:18.748Z,1.9
2018-01-06T00:44:18.509Z,1.5
2018-01-06T00:46:19.113Z,1.4
2018-01-06T00:48:18.874Z,1.5
2018-01-06T00:50:18.635Z,1
2018-01-06T00:52:19.411Z,1.7
2018-01-06T00:54:19.145Z,1.6
2018-01-06T00:56:19.207Z,1.5
2018-01-06T00:58:18.953Z,1.5
2018-01-06T01:00:18.717Z,1.4
2018-01-06T01:02:19.476Z,1.2
2018-01-06T01:04:19.259Z,1.6
2018-01-06T01:06:18.779Z,1.5
2018-01-06T01:08:18.540Z,1.6
2018-01-06T01:10:18.772Z,1.2
2018-01-06T01:12:18.547Z,1.5
2018-01-06T01:14:19.364Z,1.2
2018-01-06T01:16:19.393Z,1.2
2018-01-06T01:18:19.253Z,2.3
2018-01-06T01:20:19.039Z,1.7
2018-01-06T01:22:18.781Z,1.4
2018-01-06T01:24:18.545Z,1.8
2018-01-06T01:26:19.004Z,1.7
2018-01-06T01:28:18.733Z,1.6
2018-01-06T01:30:18.547Z,1.6
2018-01-06T01:32:19.272Z,1.5
2018-01-06T01:34:19.002Z,2.8
2018-01-06T01:36:18.483Z,2.2
2018-01-06T01:38:19.214Z,1.7
2018-01-06T01:40:19.543Z,1.4
2018-01-06T01:42:19.295Z,1.6
2018-01-06T01:44:19.051Z,1.1
2018-01-06T01:46:19.126Z,1.5
2018-01-06T01:48:18.880Z,0.8
2018-01-06T01:50:18.648Z,1.4
2018-01-06T01:52:19.422Z,1.4
2018-01-06T01:54:19.150Z,1.6
2018-01-06T01:56:18.764Z,0.8
2018-01-06T01:58:18.502Z,1.7
2018-01-06T02:00:19.277Z,1.4
2018-01-06T02:02:19.030Z,1.2
2018-01-06T02:04:18.793Z,0.9
2018-01-06T02:06:19.285Z,0.9
2018-01-06T02:08:19.055Z,1.3
2018-01-06T02:10:19.251Z,1.1
2018-01-06T02:12:19.007Z,1.3
2018-01-06T02:14:18.767Z,1.4
2018-01-06T02:16:19.266Z,1.2
2018-01-06T02:18:19.089Z,1.2
2018-01-06T02:20:18.844Z,0.9
2018-01-06T02:22:18.597Z,0.9
2018-01-06T02:24:19.333Z,0.9
2018-01-06T02:26:18.879Z,0.7
2018-01-06T02:28:18.628Z,1.4
2018-01-06T02:30:19.484Z,1
2018-01-06T02:32:19.251Z,1.4
2018-01-06T02:34:19.014Z,1.6
2018-01-06T02:36:18.708Z,0.8
2018-01-06T02:38:19.456Z,1.1
2018-01-06T02:40:18.691Z,0.9
2018-01-06T02:42:19.454Z,0.9
2018-01-06T02:44:19.227Z,0.8
2018-01-06T02:46:18.770Z,1.4
2018-01-06T02:48:18.564Z,0.9
2018-01-06T02:50:19.323Z,0.7
2018-01-06T02:52:19.072Z,1.3
2018-01-06T02:54:18.836Z,1.3
2018-01-06T02:56:18.917Z,0.7
2018-01-06T02:58:18.688Z,1.6
2018-01-06T03:00:19.438Z,0.9
2018-01-06T03:02:19.178Z,1
2018-01-06T03:04:18.941Z,0.9
2018-01-06T03:06:19.186Z,0.9
2018-01-06T03:08:18.940Z,0.9
2018-01-06T03:10:19.224Z,1.2
2018-01-06T03:12:18.986Z,0.6
2018-01-06T03:14:18.752Z,0.9
2018-01-06T03:16:18.835Z,0.9
2018-01-06T03:18:18.686Z,1
2018-01-06T03:20:19.445Z,0.8
2018-01-06T03:22:19.200Z,0.7
2018-01-06T03:24:18.972Z,0.9
2018-01-06T03:26:18.490Z,0.9
2018-01-06T03:28:19.258Z,0.8
2018-01-06T03:30:19.015Z,1.2
2018-01-06T03:32:18.762Z,1.1
2018-01-06T03:34:18.486Z,1
2018-01-06T03:36:18.483Z,0.9
2018-01-06T03:38:19.221Z,1
2018-01-06T03:40:19.465Z,1.1
2018-01-06T03:42:19.237Z,1.6
2018-01-06T03:44:18.974Z,0.7
2018-01-06T03:46:19.031Z,0.9
2018-01-06T03:48:18.779Z,0.9
2018-01-06T03:50:18.610Z,0.7
2018-01-06T03:52:19.352Z,0.8
2018-01-06T03:54:19.113Z,0.9
2018-01-06T03:56:18.761Z,1.4
2018-01-06T03:58:18.521Z,1
2018-01-06T04:00:19.296Z,0.8
2018-01-06T04:02:19.078Z,0.8
2018-01-06T04:04:18.842Z,1
2018-01-06T04:06:18.587Z,1
2018-01-06T04:08:19.343Z,0.6
2018-01-06T04:10:18.534Z,1.2
2018-01-06T04:12:19.287Z,0.8
2018-01-06T04:14:19.053Z,0.9
2018-01-06T04:16:19.142Z,0.7
2018-01-06T04:18:18.966Z,0.8
2018-01-06T04:20:18.728Z,0.8
2018-01-06T04:22:19.455Z,0.6
2018-01-06T04:24:19.191Z,0.9
2018-01-06T04:26:19.263Z,1.1
2018-01-06T04:28:19.015Z,0.8
2018-01-06T04:30:18.772Z,0.7
2018-01-06T04:32:18.562Z,1.1
2018-01-06T04:34:19.319Z,0.6
2018-01-06T04:36:19.352Z,0.8
2018-01-06T04:38:19.108Z,0.7
2018-01-06T04:40:19.307Z,0.5
2018-01-06T04:42:19.041Z,1.3
2018-01-06T04:44:18.819Z,1.3
2018-01-06T04:46:18.476Z,1
2018-01-06T04:48:19.212Z,0.9
2018-01-06T04:50:18.972Z,1.3
2018-01-06T04:52:18.724Z,0.8
2018-01-06T04:54:18.485Z,1
2018-01-06T04:56:19.003Z,1.1
2018-01-06T04:58:18.772Z,0.6
2018-01-06T05:00:18.535Z,0.8
2018-01-06T05:02:19.310Z,0.7
2018-01-06T05:04:19.064Z,1
2018-01-06T05:06:18.586Z,0.8
2018-01-06T05:08:19.322Z,0.7
2018-01-06T05:10:18.550Z,0.7
2018-01-06T05:12:19.316Z,0.7
2018-01-06T05:14:19.071Z,0.6
2018-01-06T05:16:18.562Z,0.9
2018-01-06T05:18:19.375Z,0.8
2018-01-06T05:20:19.139Z,0.8
2018-01-06T05:22:18.879Z,3.1
2018-01-06T05:24:18.610Z,2.7
2018-01-06T05:26:18.627Z,1.4
2018-01-06T05:28:19.363Z,0.9
2018-01-06T05:30:19.104Z,0.8
2018-01-06T05:32:18.841Z,0.7
2018-01-06T05:34:18.594Z,1.1
2018-01-06T05:36:19.228Z,0.9
2018-01-06T05:38:18.961Z,0.8
2018-01-06T05:40:19.139Z,0.7
2018-01-06T05:42:18.902Z,1.1
2018-01-06T05:44:18.655Z,0.7
2018-01-06T05:46:19.172Z,0.9
2018-01-06T05:48:18.898Z,1
2018-01-06T05:50:18.666Z,1.3
2018-01-06T05:52:19.417Z,0.5
2018-01-06T05:54:19.200Z,0.8
2018-01-06T05:56:19.330Z,1.3
2018-01-06T05:58:19.062Z,0.6
2018-01-06T06:00:18.841Z,1.1
2018-01-06T06:02:18.605Z,0.6
2018-01-06T06:04:19.346Z,0.9
2018-01-06T06:06:18.840Z,1.1
2018-01-06T06:08:18.577Z,0.9
2018-01-06T06:10:18.868Z,0.6
2018-01-06T06:12:18.620Z,0.7
2018-01-06T06:14:19.342Z,1.8
2018-01-06T06:16:19.367Z,0.9
2018-01-06T06:18:19.161Z,0.7
2018-01-06T06:20:18.932Z,0.8
2018-01-06T06:22:18.710Z,1
2018-01-06T06:24:19.473Z,1.1
2018-01-06T06:26:19.201Z,1
2018-01-06T06:28:18.963Z,1.7
2018-01-06T06:30:18.739Z,1.2
2018-01-06T06:32:18.522Z,0.5
2018-01-06T06:34:19.253Z,1.5
2018-01-06T06:36:18.843Z,0.8
2018-01-06T06:38:18.604Z,0.6
2018-01-06T06:40:18.799Z,0.9
2018-01-06T06:42:18.530Z,0.9
2018-01-06T06:44:19.272Z,0.8
2018-01-06T06:46:19.136Z,0.3
2018-01-06T06:48:18.852Z,1.4
2018-01-06T06:50:18.582Z,0.5
2018-01-06T06:52:19.295Z,1
2018-01-06T06:54:19.059Z,1.3
2018-01-06T06:56:19.054Z,0.6
2018-01-06T06:58:18.793Z,1.2
2018-01-06T07:00:18.665Z,0.5
2018-01-06T07:02:19.409Z,1.5
2018-01-06T07:04:19.190Z,1.1
2018-01-06T07:06:18.960Z,1.1
2018-01-06T07:08:18.716Z,0.9
2018-01-06T07:10:18.997Z,0.7
2018-01-06T07:12:18.756Z,0.8
2018-01-06T07:14:18.507Z,0.9
2018-01-06T07:16:19.102Z,1.2
2018-01-06T07:18:18.926Z,1.4
2018-01-06T07:20:18.685Z,1.4
2018-01-06T07:22:19.431Z,0.6
2018-01-06T07:24:19.186Z,0.8
2018-01-06T07:26:19.237Z,1.2
2018-01-06T07:28:18.973Z,1
2018-01-06T07:30:18.880Z,0.9
2018-01-06T07:32:18.628Z,1.3
2018-01-06T07:34:19.354Z,0.9
2018-01-06T07:36:18.882Z,1
2018-01-06T07:38:18.636Z,1
2018-01-06T07:40:18.921Z,1.1
2018-01-06T07:42:18.672Z,0.5
2018-01-06T07:44:19.431Z,1.5
2018-01-06T07:46:19.035Z,1
2018-01-06T07:48:18.810Z,0.7
2018-01-06T07:50:18.560Z,1.2
2018-01-06T07:52:19.300Z,1
2018-01-06T07:54:19.055Z,1.2
2018-01-06T07:56:18.705Z,1.2
2018-01-06T07:58:18.477Z,0.8
2018-01-06T08:00:19.220Z,1.6
2018-01-06T08:02:18.948Z,0.5
2018-01-06T08:04:18.692Z,1.1
2018-01-06T08:06:18.556Z,0.6
2018-01-06T08:08:19.299Z,0.8
2018-01-06T08:10:18.499Z,0.8
2018-01-06T08:12:19.244Z,1.1
2018-01-06T08:14:19.007Z,1.3
2018-01-06T08:16:19.283Z,1.3
2018-01-06T08:18:19.109Z,1.1
2018-01-06T08:20:18.861Z,0.9
2018-01-06T08:22:18.634Z,0.8
2018-01-06T08:24:19.386Z,1
2018-01-06T08:26:19.097Z,1
2018-01-06T08:28:18.876Z,0.8
2018-01-06T08:30:18.653Z,0.6
2018-01-06T08:32:19.419Z,0.6
2018-01-06T08:34:19.168Z,0.8
2018-01-06T08:36:19.318Z,0.7
2018-01-06T08:38:19.102Z,0.7
2018-01-06T08:40:19.356Z,0.9
2018-01-06T08:42:19.120Z,1.2
2018-01-06T08:44:18.886Z,1.6
2018-01-06T08:46:19.409Z,1
2018-01-06T08:48:19.138Z,1.2
2018-01-06T08:50:18.891Z,0.8
2018-01-06T08:52:18.646Z,1.1
2018-01-06T08:54:19.410Z,0.9
2018-01-06T08:56:18.477Z,1.1
2018-01-06T08:58:19.194Z,0.7
2018-01-06T09:00:18.971Z,1.2
2018-01-06T09:02:18.694Z,0.6
2018-01-06T09:04:19.430Z,1.4
2018-01-06T09:06:19.282Z,1.2
2018-01-06T09:08:19.017Z,2.5
2018-01-06T09:10:19.260Z,2.1
2018-01-06T09:12:19.003Z,1.6
2018-01-06T09:14:18.742Z,1.4
2018-01-06T09:16:19.452Z,1.4
2018-01-06T09:18:19.300Z,1.5
2018-01-06T09:20:19.090Z,1.4
2018-01-06T09:22:18.861Z,1.4
2018-01-06T09:24:18.599Z,1.3
2018-01-06T09:26:18.828Z,1.7
2018-01-06T09:28:18.567Z,1.4
2018-01-06T09:30:19.316Z,0.7
2018-01-06T09:32:19.067Z,1.7
2018-01-06T09:34:18.875Z,1.5
2018-01-06T09:36:18.797Z,1.2
2018-01-06T09:38:18.568Z,1.3
2018-01-06T09:40:18.824Z,1.2
2018-01-06T09:42:18.605Z,1
2018-01-06T09:44:19.369Z,1.8
2018-01-06T09:46:18.877Z,1.9
2018-01-06T09:48:18.643Z,1.3
2018-01-06T09:50:19.405Z,1.3
2018-01-06T09:52:19.141Z,2.2
2018-01-06T09:54:18.877Z,1.5
2018-01-06T09:56:19.386Z,1.9
2018-01-06T09:58:19.162Z,3.3
2018-01-06T10:00:18.922Z,3.4
2018-01-06T10:02:18.689Z,1.9
2018-01-06T10:04:19.445Z,1.4
2018-01-06T10:06:18.995Z,1.1
2018-01-06T10:08:18.767Z,1.3
2018-01-06T10:10:18.932Z,1.3
2018-01-06T10:12:18.698Z,0.8
2018-01-06T10:14:19.471Z,1.4
2018-01-06T10:16:19.351Z,1
2018-01-06T10:18:19.164Z,1
2018-01-06T10:20:18.938Z,1
2018-01-06T10:22:18.697Z,1.6
2018-01-06T10:24:19.441Z,1.9
2018-01-06T10:26:18.931Z,1.7
2018-01-06T10:28:18.690Z,1.5
2018-01-06T10:30:19.438Z,2
2018-01-06T10:32:19.197Z,1.7
2018-01-06T10:34:18.968Z,1.1
2018-01-06T10:36:18.508Z,1.2
2018-01-06T10:38:19.255Z,1.7
2018-01-06T10:40:19.474Z,0.8
2018-01-06T10:42:19.258Z,1.2
2018-01-06T10:44:19.026Z,1.2
2018-01-06T10:46:18.581Z,1.5
2018-01-06T10:48:19.350Z,1.2
2018-01-06T10:50:19.087Z,1.3
2018-01-06T10:52:18.824Z,1.1
2018-01-06T10:54:18.572Z,1.3
2018-01-06T10:56:19.175Z,0.8
2018-01-06T10:58:18.926Z,1.3
2018-01-06T11:00:18.709Z,1.4
2018-01-06T11:02:19.461Z,0.8
2018-01-06T11:04:19.188Z,1.3
2018-01-06T11:06:18.683Z,1.3
2018-01-06T11:08:19.452Z,1.2
2018-01-06T11:10:18.794Z,0.7
2018-01-06T11:12:18.539Z,1.4
2018-01-06T11:14:19.282Z,1.1
2018-01-06T11:16:18.847Z,1
2018-01-06T11:18:18.675Z,1.9
2018-01-06T11:20:19.512Z,0.9
2018-01-06T11:22:19.270Z,2.4
2018-01-06T11:24:19.049Z,0.5
2018-01-06T11:26:18.688Z,1.2
2018-01-06T11:28:19.470Z,0.6
2018-01-06T11:30:19.248Z,1.1
2018-01-06T11:32:18.992Z,1
2018-01-06T11:34:18.732Z,1.2
2018-01-06T11:36:18.821Z,1.3
2018-01-06T11:38:18.592Z,0.9
2018-01-06T11:40:18.841Z,0.8
2018-01-06T11:42:18.608Z,1.1
2018-01-06T11:44:19.357Z,0.9
2018-01-06T11:46:19.384Z,0.5
2018-01-06T11:48:19.142Z,1.1
2018-01-06T11:50:18.898Z,1
2018-01-06T11:52:18.680Z,1.4
2018-01-06T11:54:19.428Z,1.1
2018-01-06T11:56:18.920Z,0.7
2018-01-06T11:58:18.665Z,1
2018-01-06T12:00:19.429Z,0.9
2018-01-06T12:02:19.174Z,1
2018-01-06T12:04:18.939Z,0.9
2018-01-06T12:06:19.030Z,1
2018-01-06T12:08:18.783Z,0.9
2018-01-06T12:10:18.967Z,1.4
2018-01-06T12:12:18.730Z,1.1
2018-01-06T12:14:19.484Z,1.2
2018-01-06T12:16:19.164Z,1
2018-01-06T12:18:18.988Z,1.4
2018-01-06T12:20:18.739Z,1.3
2018-01-06T12:22:18.474Z,1
2018-01-06T12:24:19.202Z,1
2018-01-06T12:26:18.720Z,1.4
2018-01-06T12:28:19.484Z,0.9
2018-01-06T12:30:19.233Z,1
2018-01-06T12:32:18.991Z,1.4
2018-01-06T12:34:18.750Z,1.3
2018-01-06T12:36:18.819Z,1
2018-01-06T12:38:18.601Z,1.1
2018-01-06T12:40:18.855Z,0.8
2018-01-06T12:42:18.623Z,1.1
2018-01-06T12:44:19.379Z,1
2018-01-06T12:46:18.936Z,1
2018-01-06T12:48:18.691Z,1.2
2018-01-06T12:50:18.522Z,1.1
2018-01-06T12:52:19.319Z,1
2018-01-06T12:54:19.085Z,1.3
2018-01-06T12:56:19.122Z,1.3
2018-01-06T12:58:18.898Z,1.1
2018-01-06T13:00:18.665Z,0.7
2018-01-06T13:02:19.407Z,1.5
2018-01-06T13:04:19.146Z,1.2
2018-01-06T13:06:18.648Z,1.3
2018-01-06T13:08:19.400Z,1.9
2018-01-06T13:10:18.610Z,1.4
2018-01-06T13:12:19.366Z,1.4
2018-01-06T13:14:19.097Z,1.3
2018-01-06T13:16:19.149Z,1.5
2018-01-06T13:18:18.986Z,1
2018-01-06T13:20:18.757Z,1.1
2018-01-06T13:22:19.359Z,1.6
2018-01-06T13:24:19.187Z,1.3
2018-01-06T13:26:19.331Z,1.1
2018-01-06T13:28:19.098Z,1.3
2018-01-06T13:30:18.862Z,1.4
2018-01-06T13:32:19.464Z,1
2018-01-06T13:34:19.206Z,1.2
2018-01-06T13:36:19.335Z,1.1
2018-01-06T13:38:19.095Z,1.3
2018-01-06T13:40:19.434Z,0.8
2018-01-06T13:42:19.211Z,1.2
2018-01-06T13:44:18.975Z,1.1
2018-01-06T13:46:18.518Z,1.4
2018-01-06T13:48:19.291Z,1.2
2018-01-06T13:50:19.060Z,0.7
2018-01-06T13:52:18.823Z,1.1
2018-01-06T13:54:18.599Z,0.9
2018-01-06T13:56:19.143Z,1.4
2018-01-06T13:58:18.917Z,2.5
2018-01-06T14:00:18.667Z,0.8
2018-01-06T14:02:19.432Z,1.4
2018-01-06T14:04:19.201Z,0.8
2018-01-06T14:06:18.707Z,1.5
2018-01-06T14:08:19.466Z,1.1
2018-01-06T14:10:18.905Z,1.3
2018-01-06T14:12:18.671Z,1.5
2018-01-06T14:14:19.423Z,1.4
2018-01-06T14:16:18.593Z,1.5
2018-01-06T14:18:19.423Z,1.2
2018-01-06T14:20:19.186Z,1.3
2018-01-06T14:22:18.951Z,2.1
2018-01-06T14:24:18.728Z,1
2018-01-06T14:26:19.229Z,1.3
2018-01-06T14:28:18.992Z,1.7
2018-01-06T14:30:18.779Z,2.1
2018-01-06T14:32:18.540Z,1.2
2018-01-06T14:34:19.284Z,1.3
2018-01-06T14:36:18.539Z,1.5
2018-01-06T14:38:19.278Z,1.3
2018-01-06T14:40:18.530Z,1.6
2018-01-06T14:42:19.280Z,2
2018-01-06T14:44:19.048Z,2.2
2018-01-06T14:46:19.114Z,2
2018-01-06T14:48:18.876Z,2.2
2018-01-06T14:50:18.727Z,3
2018-01-06T14:52:18.508Z,2.6
2018-01-06T14:54:19.245Z,2.7
2018-01-06T14:56:18.832Z,1.8
2018-01-06T14:58:18.575Z,2.6
2018-01-06T15:00:19.328Z,3.2
2018-01-06T15:02:19.075Z,4
2018-01-06T15:04:18.830Z,3.4
2018-01-06T15:06:18.925Z,3.1
2018-01-06T15:08:18.684Z,2.8
2018-01-06T15:10:18.923Z,2.7
2018-01-06T15:12:18.663Z,3.1
2018-01-06T15:14:19.406Z,3.8
2018-01-06T15:16:18.530Z,2.8
2018-01-06T15:18:19.394Z,3.2
2018-01-06T15:20:19.208Z,3.2
2018-01-06T15:22:18.978Z,3.7
2018-01-06T15:24:18.728Z,2.6
2018-01-06T15:26:18.794Z,3.9
2018-01-06T15:28:18.542Z,3.2
2018-01-06T15:30:19.346Z,2.8
2018-01-06T15:32:19.111Z,3.2
2018-01-06T15:34:18.850Z,2.9
2018-01-06T15:36:19.042Z,3.6
2018-01-06T15:38:18.819Z,3.2
2018-01-06T15:40:19.024Z,3.1
2018-01-06T15:42:18.790Z,3.1
2018-01-06T15:44:18.559Z,3.4
2018-01-06T15:46:19.042Z,3.1
2018-01-06T15:48:18.791Z,3.1
2018-01-06T15:50:18.542Z,4.3
2018-01-06T15:52:19.298Z,3.4
2018-01-06T15:54:19.049Z,3.9
2018-01-06T15:56:19.106Z,4.4
2018-01-06T15:58:18.873Z,4
2018-01-06T16:00:18.677Z,4
2018-01-06T16:02:19.426Z,5.7
2018-01-06T16:04:19.165Z,3.6
2018-01-06T16:06:19.211Z,2.9
2018-01-06T16:08:19.001Z,3.6
2018-01-06T16:10:19.248Z,4
2018-01-06T16:12:18.998Z,3.4
2018-01-06T16:14:18.755Z,3.3
2018-01-06T16:16:19.274Z,4
2018-01-06T16:18:19.102Z,4.3
2018-01-06T16:20:18.934Z,4.3
2018-01-06T16:22:18.673Z,4.7
2018-01-06T16:24:19.456Z,6.5
2018-01-06T16:26:18.572Z,6.3
2018-01-06T16:28:19.323Z,7.6
2018-01-06T16:30:19.090Z,11.8
2018-01-06T16:32:19.221Z,8.5
2018-01-06T16:34:18.977Z,7.7
2018-01-06T16:36:18.588Z,6.3
2018-01-06T16:38:19.317Z,6.1
2018-01-06T16:40:18.523Z,7.8
2018-01-06T16:42:19.278Z,7.4
2018-01-06T16:44:19.032Z,6.4
2018-01-06T16:46:19.063Z,7
2018-01-06T16:48:18.807Z,6.4
2018-01-06T16:50:18.567Z,6.3
2018-01-06T16:52:19.328Z,5.3
2018-01-06T16:54:19.066Z,4.3
2018-01-06T16:56:18.656Z,5.1
2018-01-06T16:58:19.419Z,5.2
2018-01-06T17:00:19.209Z,4.9
2018-01-06T17:02:18.796Z,4.8
2018-01-06T17:04:18.545Z,5.1
2018-01-06T17:06:19.041Z,5.7
2018-01-06T17:08:18.785Z,4.3
2018-01-06T17:10:19.171Z,5
2018-01-06T17:12:18.933Z,6.1
2018-01-06T17:14:18.684Z,4.7
2018-01-06T17:16:18.489Z,4.8
2018-01-06T17:18:19.321Z,4.4
2018-01-06T17:20:19.080Z,5.6
2018-01-06T17:22:18.838Z,5.6
2018-01-06T17:24:18.604Z,6.1
2018-01-06T17:26:19.066Z,5.7
2018-01-06T17:28:18.803Z,8.6
2018-01-06T17:30:18.547Z,6.3
2018-01-06T17:32:19.279Z,5.5
2018-01-06T17:34:19.048Z,6.2
2018-01-06T17:36:18.605Z,6.5
2018-01-06T17:38:19.371Z,5.3
2018-01-06T17:40:18.578Z,6.2
2018-01-06T17:42:19.350Z,5.1
2018-01-06T17:44:19.132Z,5.6
2018-01-06T17:46:18.695Z,5.5
2018-01-06T17:48:19.444Z,5.6
2018-01-06T17:50:19.184Z,5.4
2018-01-06T17:52:18.938Z,6.4
2018-01-06T17:54:18.673Z,6.4
2018-01-06T17:56:18.714Z,6.5
2018-01-06T17:58:19.492Z,6.6
2018-01-06T18:00:19.272Z,7
2018-01-06T18:02:19.023Z,7.3
2018-01-06T18:04:18.787Z,7.7
2018-01-06T18:06:19.115Z,7.6
2018-01-06T18:08:18.912Z,7.3
2018-01-06T18:10:19.119Z,8.2
2018-01-06T18:12:18.878Z,7.6
2018-01-06T18:14:18.632Z,8
2018-01-06T18:16:19.228Z,8.2
2018-01-06T18:18:19.067Z,7.1
2018-01-06T18:20:18.854Z,6
2018-01-06T18:22:18.624Z,8
2018-01-06T18:24:19.374Z,6.8
2018-01-06T18:26:19.118Z,7.3
2018-01-06T18:28:18.905Z,6.7
2018-01-06T18:30:18.703Z,7.3
2018-01-06T18:32:19.444Z,7.7
2018-01-06T18:34:19.196Z,8
2018-01-06T18:36:18.677Z,8.5
2018-01-06T18:38:19.413Z,7.1
2018-01-06T18:40:18.638Z,8.3
2018-01-06T18:42:19.392Z,7.6
2018-01-06T18:44:19.142Z,7.8
2018-01-06T18:46:19.189Z,8.6
2018-01-06T18:48:18.939Z,7.3
2018-01-06T18:50:18.706Z,8
2018-01-06T18:52:18.785Z,8.6
2018-01-06T18:54:18.513Z,7.8
2018-01-06T18:56:18.548Z,8.2
2018-01-06T18:58:19.309Z,8.3
2018-01-06T19:00:19.162Z,8.6
2018-01-06T19:02:18.920Z,8.8
2018-01-06T19:04:18.686Z,9.4
2018-01-06T19:06:18.772Z,8.3
2018-01-06T19:08:18.539Z,7.4
2018-01-06T19:10:18.736Z,8.5
2018-01-06T19:12:18.484Z,8
2018-01-06T19:14:19.245Z,6.4
2018-01-06T19:16:19.438Z,7.2
2018-01-06T19:18:19.256Z,6.5
2018-01-06T19:20:19.009Z,8.1
2018-01-06T19:22:18.764Z,9
2018-01-06T19:24:18.537Z,8.6
2018-01-06T19:26:19.103Z,7.5
2018-01-06T19:28:18.841Z,7.6
2018-01-06T19:30:18.715Z,8.4
2018-01-06T19:32:18.632Z,8
2018-01-06T19:34:19.392Z,10.5
2018-01-06T19:36:19.437Z,9.9
2018-01-06T19:38:19.223Z,10.2
2018-01-06T19:40:19.458Z,8.5
2018-01-06T19:42:19.046Z,9.8
2018-01-06T19:44:18.786Z,7.9
2018-01-06T19:46:18.520Z,9.2
2018-01-06T19:48:19.273Z,8.5
2018-01-06T19:50:19.046Z,9.7
2018-01-06T19:52:18.810Z,11.5
2018-01-06T19:54:18.576Z,12.4
2018-01-06T19:56:19.059Z,12.7
2018-01-06T19:58:18.809Z,11.7
2018-01-06T20:00:18.586Z,11.1
2018-01-06T20:02:19.366Z,9.4
2018-01-06T20:04:19.116Z,10.9
2018-01-06T20:06:18.640Z,10.1
2018-01-06T20:08:19.388Z,12.4
2018-01-06T20:10:18.617Z,11.1
2018-01-06T20:12:19.347Z,11.8
2018-01-06T20:14:19.115Z,13.2
2018-01-06T20:16:19.220Z,12.6
2018-01-06T20:18:19.044Z,13.1
2018-01-06T20:20:18.843Z,11.2
2018-01-06T20:22:18.614Z,11.5
2018-01-06T20:24:19.381Z,10.3
2018-01-06T20:26:19.028Z,11.5
2018-01-06T20:28:18.764Z,10.9
2018-01-06T20:30:18.560Z,10.6
2018-01-06T20:32:19.325Z,12.6
2018-01-06T20:34:19.084Z,13.9
2018-01-06T20:36:18.951Z,12.3
2018-01-06T20:38:18.705Z,11.8
2018-01-06T20:40:18.911Z,13.4
2018-01-06T20:42:18.660Z,12.8
2018-01-06T20:44:19.425Z,11.4
2018-01-06T20:46:18.775Z,12.3
2018-01-06T20:48:18.529Z,12.3
2018-01-06T20:50:19.261Z,12.7
2018-01-06T20:52:19.012Z,10.8
2018-01-06T20:54:18.808Z,11.2
2018-01-06T20:56:18.844Z,10.2
2018-01-06T20:58:18.602Z,11.8
2018-01-06T21:00:19.368Z,9.9
2018-01-06T21:02:19.132Z,11.6
2018-01-06T21:04:18.866Z,12
2018-01-06T21:06:19.332Z,13.5
2018-01-06T21:08:19.082Z,12.6
2018-01-06T21:10:19.453Z,17.1
2018-01-06T21:12:19.193Z,16
2018-01-06T21:14:18.951Z,13.3
2018-01-06T21:16:19.014Z,11
2018-01-06T21:18:18.848Z,10.2
2018-01-06T21:20:18.616Z,9.3
2018-01-06T21:22:19.333Z,9.3
2018-01-06T21:24:19.070Z,7.1
2018-01-06T21:26:18.576Z,7.3
2018-01-06T21:28:19.302Z,5.6
2018-01-06T21:30:19.062Z,6
2018-01-06T21:32:18.808Z,5.8
2018-01-06T21:34:18.557Z,5.7
2018-01-06T21:36:18.640Z,5.4
2018-01-06T21:38:19.379Z,5
2018-01-06T21:40:18.575Z,6
2018-01-06T21:42:19.332Z,4.3
2018-01-06T21:44:19.056Z,4.5
2018-01-06T21:46:19.189Z,4.4
2018-01-06T21:48:18.935Z,4.8
2018-01-06T21:50:18.729Z,4.5
2018-01-06T21:52:19.308Z,4.5
2018-01-06T21:54:19.041Z,4.4
2018-01-06T21:56:19.078Z,5.2
2018-01-06T21:58:18.826Z,4.6
2018-01-06T22:00:18.594Z,4.2
2018-01-06T22:02:19.200Z,5.3
2018-01-06T22:04:18.949Z,4.3
2018-01-06T22:06:19.340Z,5.6
2018-01-06T22:08:19.081Z,4.2
2018-01-06T22:10:19.335Z,4
2018-01-06T22:12:19.377Z,4.5
2018-01-06T22:14:19.145Z,3.8
2018-01-06T22:16:18.676Z,4
2018-01-06T22:18:18.507Z,3.5
2018-01-06T22:20:19.256Z,4.3
2018-01-06T22:22:19.008Z,4.2
2018-01-06T22:24:18.723Z,3.5
2018-01-06T22:26:19.276Z,4.2
2018-01-06T22:28:19.024Z,3
2018-01-06T22:30:18.789Z,4.2
2018-01-06T22:32:18.505Z,4.1
2018-01-06T22:34:19.264Z,3.4
2018-01-06T22:36:18.790Z,3.2
2018-01-06T22:38:18.566Z,3.6
2018-01-06T22:40:18.791Z,2.6
2018-01-06T22:42:18.542Z,3.3
2018-01-06T22:44:19.295Z,3
2018-01-06T22:46:19.015Z,3
2018-01-06T22:48:18.789Z,3.9
2018-01-06T22:50:18.553Z,3.5
2018-01-06T22:52:19.317Z,3.9
2018-01-06T22:54:19.096Z,2.8
2018-01-06T22:56:19.138Z,2.9
2018-01-06T22:58:18.883Z,3
2018-01-06T23:00:18.630Z,2.3
2018-01-06T23:02:19.384Z,2.2
2018-01-06T23:04:19.139Z,2.8
2018-01-06T23:06:19.439Z,1.8
2018-01-06T23:08:19.206Z,1.9
2018-01-06T23:10:19.500Z,1.7
2018-01-06T23:12:18.978Z,1.7
2018-01-06T23:14:18.731Z,1.6
2018-01-06T23:16:18.767Z,1.9
2018-01-06T23:18:18.657Z,2.2
2018-01-06T23:20:19.420Z,1.9
2018-01-06T23:22:19.155Z,1.9
2018-01-06T23:24:18.921Z,0.9
2018-01-06T23:26:19.474Z,1.3
2018-01-06T23:28:19.215Z,2.1
2018-01-06T23:30:18.989Z,1.3
2018-01-06T23:32:18.712Z,0.7
2018-01-06T23:34:19.476Z,0.8
2018-01-06T23:36:18.579Z,0.8
2018-01-06T23:38:19.321Z,0.6
2018-01-06T23:40:18.587Z,0.7
2018-01-06T23:42:19.181Z,0.8
2018-01-06T23:44:18.916Z,0.8
2018-01-06T23:46:18.962Z,1.1
2018-01-06T23:48:18.701Z,0.6
2018-01-06T23:50:19.492Z,0.4
2018-01-06T23:52:19.127Z,0.7
2018-01-06T23:54:18.859Z,0.9
2018-01-06T23:56:18.846Z,0.9
2018-01-06T23:58:18.599Z,0.7
